createdAt,value
2023-01-21T00:00:11.072Z,101437.21
2023-01-21T00:01:11.093Z,101437.66
2023-01-21T00:02:11.110Z,101439.38
2023-01-21T00:03:11.093Z,101438.88
2023-01-21T00:04:11.068Z,101437.64
2023-01-21T00:05:11.068Z,101438.54
2023-01-21T00:06:11.074Z,101440.47
2023-01-21T00:07:11.076Z,101442.39
2023-01-21T00:08:11.070Z,101443.48
2023-01-21T00:09:11.071Z,101445.02
2023-01-21T00:10:11.063Z,101446.85
2023-01-21T00:11:11.068Z,101446.77
2023-01-21T00:12:11.072Z,101446.21
2023-01-21T00:13:11.064Z,101445.12
2023-01-21T00:14:11.067Z,101447.61
2023-01-21T00:15:11.071Z,101448.09
2023-01-21T00:16:11.127Z,101446.01
2023-01-21T00:17:11.067Z,101444.40
2023-01-21T00:18:11.071Z,101442.70
2023-01-21T00:19:11.065Z,101448.58
2023-01-21T00:20:11.058Z,101449.09
2023-01-21T00:21:11.081Z,101451.71
2023-01-21T00:22:11.062Z,101451.85
2023-01-21T00:23:11.060Z,101451.29
2023-01-21T00:24:11.073Z,101452.33
2023-01-21T00:25:11.073Z,101449.23
2023-01-21T00:26:12.091Z,101451.56
2023-01-21T00:27:11.083Z,101449.46
2023-01-21T00:28:11.069Z,101448.86
2023-01-21T00:29:11.065Z,101448.89
2023-01-21T00:30:11.071Z,101447.75
2023-01-21T00:31:11.127Z,101447.25
2023-01-21T00:32:11.065Z,101450.74
2023-01-21T00:33:11.072Z,101450.24
2023-01-21T00:34:11.065Z,101447.66
2023-01-21T00:35:11.074Z,101451.31
2023-01-21T00:36:13.097Z,101448.09
2023-01-21T00:37:11.068Z,101447.42
2023-01-21T00:38:11.067Z,101451.06
2023-01-21T00:39:11.088Z,101452.66
2023-01-21T00:40:11.076Z,101453.84
2023-01-21T00:41:13.117Z,101454.64
2023-01-21T00:42:13.071Z,101457.80
2023-01-21T00:43:11.063Z,101458.43
2023-01-21T00:44:11.063Z,101457.34
2023-01-21T00:45:11.071Z,101458.75
2023-01-21T00:46:11.101Z,101455.54
2023-01-21T00:47:11.065Z,101455.86
2023-01-21T00:48:11.068Z,101459.88
2023-01-21T00:49:11.062Z,101459.29
2023-01-21T00:50:11.078Z,101459.68
2023-01-21T00:51:11.116Z,101460.13
2023-01-21T00:52:11.063Z,101453.39
2023-01-21T00:53:11.072Z,101456.62
2023-01-21T00:54:11.065Z,101457.75
2023-01-21T00:55:11.063Z,101457.17
2023-01-21T00:56:11.082Z,101455.26
2023-01-21T00:57:11.066Z,101456.40
2023-01-21T00:58:11.069Z,101458.82
2023-01-21T00:59:11.065Z,101462.23
2023-01-21T01:00:11.115Z,101455.65
2023-01-21T01:01:11.121Z,101456.95
2023-01-21T01:02:11.060Z,101458.84
2023-01-21T01:03:11.064Z,101462.81
2023-01-21T01:04:11.065Z,101465.14
2023-01-21T01:05:12.067Z,101467.22
2023-01-21T01:06:11.061Z,101466.20
2023-01-21T01:07:11.062Z,101470.91
2023-01-21T01:08:11.066Z,101474.04
2023-01-21T01:09:11.064Z,101470.73
2023-01-21T01:10:11.060Z,101472.83
2023-01-21T01:11:11.065Z,101476.23
2023-01-21T01:12:11.063Z,101475.08
2023-01-21T01:13:11.059Z,101476.02
2023-01-21T01:14:11.061Z,101474.79
2023-01-21T01:15:11.105Z,101477.86
2023-01-21T01:16:12.139Z,101478.78
2023-01-21T01:17:11.072Z,101477.91
2023-01-21T01:18:11.091Z,101482.00
2023-01-21T01:19:11.064Z,101482.52
2023-01-21T01:20:11.059Z,101481.03
2023-01-21T01:21:13.082Z,101488.09
2023-01-21T01:22:11.061Z,101487.28
2023-01-21T01:23:11.070Z,101489.10
2023-01-21T01:24:11.072Z,101489.74
2023-01-21T01:25:11.062Z,101490.62
2023-01-21T01:26:12.068Z,101490.39
2023-01-21T01:27:11.079Z,101492.45
2023-01-21T01:28:11.060Z,101494.42
2023-01-21T01:29:13.063Z,101493.84
2023-01-21T01:30:11.062Z,101502.71
2023-01-21T01:31:12.171Z,101497.64
2023-01-21T01:32:11.060Z,101499.52
2023-01-21T01:33:11.062Z,101502.44
2023-01-21T01:34:11.061Z,101506.20
2023-01-21T01:35:11.061Z,101509.97
2023-01-21T01:36:15.074Z,101513.09
2023-01-21T01:37:11.062Z,101514.44
2023-01-21T01:38:12.063Z,101517.56
2023-01-21T01:39:11.071Z,101518.62
2023-01-21T01:40:11.060Z,101521.16
2023-01-21T01:41:14.062Z,101521.54
2023-01-21T01:42:14.074Z,101517.65
2023-01-21T01:43:18.062Z,101522.88
2023-01-21T01:44:19.060Z,101521.73
2023-01-21T01:45:18.070Z,101523.80
2023-01-21T01:46:11.087Z,101529.97
2023-01-21T01:47:11.061Z,101528.98
2023-01-21T01:48:13.066Z,101527.37
2023-01-21T01:49:19.066Z,101527.96
2023-01-21T01:50:12.062Z,101530.78
2023-01-21T01:51:11.153Z,101531.82
2023-01-21T01:52:12.062Z,101532.28
2023-01-21T01:53:11.071Z,101538.30
2023-01-21T01:54:11.065Z,101542.24
2023-01-21T01:55:11.064Z,101542.00
2023-01-21T01:56:11.067Z,101550.11
2023-01-21T01:57:12.062Z,101549.99
2023-01-21T01:58:13.073Z,101549.00
2023-01-21T01:59:11.076Z,101553.55
2023-01-21T02:00:13.060Z,101551.42
2023-01-21T02:01:11.079Z,101550.82
2023-01-21T02:02:12.068Z,101555.63
2023-01-21T02:03:15.066Z,101556.48
2023-01-21T02:04:12.067Z,101558.44
2023-01-21T02:05:11.060Z,101560.44
2023-01-21T02:06:11.063Z,101557.02
2023-01-21T02:07:11.066Z,101558.76
2023-01-21T02:08:11.060Z,101560.90
2023-01-21T02:09:11.063Z,101564.91
2023-01-21T02:10:11.071Z,101566.47
2023-01-21T02:11:15.062Z,101568.93
2023-01-21T02:12:11.062Z,101569.23
2023-01-21T02:13:11.070Z,101570.09
2023-01-21T02:14:11.065Z,101565.87
2023-01-21T02:15:11.086Z,101568.86
2023-01-21T02:16:19.134Z,101570.75
2023-01-21T02:17:19.064Z,101571.41
2023-01-21T02:18:21.062Z,101571.71
2023-01-21T02:19:21.086Z,101570.59
2023-01-21T02:20:19.105Z,101569.10
2023-01-21T02:21:19.066Z,101571.52
2023-01-21T02:22:19.064Z,101572.74
2023-01-21T02:23:19.060Z,101569.46
2023-01-21T02:24:19.081Z,101569.90
2023-01-21T02:25:21.077Z,101570.55
2023-01-21T02:26:19.065Z,101570.17
2023-01-21T02:27:29.964Z,101569.94
2023-01-21T02:28:21.069Z,101569.15
2023-01-21T02:29:21.064Z,101567.59
2023-01-21T02:30:21.064Z,101567.46
2023-01-21T02:31:19.234Z,101567.18
2023-01-21T02:32:21.064Z,101564.07
2023-01-21T02:33:19.061Z,101568.98
2023-01-21T02:34:19.064Z,101567.53
2023-01-21T02:35:21.066Z,101567.82
2023-01-21T02:36:19.104Z,101563.73
2023-01-21T02:37:19.065Z,101563.86
2023-01-21T02:38:19.070Z,101563.46
2023-01-21T02:39:21.070Z,101559.07
2023-01-21T02:40:21.074Z,101564.62
2023-01-21T02:41:19.071Z,101564.39
2023-01-21T02:42:21.063Z,101562.74
2023-01-21T02:43:19.063Z,101562.02
2023-01-21T02:44:21.072Z,101562.13
2023-01-21T02:45:19.069Z,101561.27
2023-01-21T02:46:19.102Z,101563.05
2023-01-21T02:47:21.066Z,101564.59
2023-01-21T02:48:17.063Z,101565.00
2023-01-21T02:49:19.061Z,101562.45
2023-01-21T02:50:17.314Z,101562.20
2023-01-21T02:51:12.144Z,101561.38
2023-01-21T02:52:15.062Z,101563.28
2023-01-21T02:53:21.070Z,101561.42
2023-01-21T02:54:15.064Z,101564.41
2023-01-21T02:55:15.072Z,101565.39
2023-01-21T02:56:13.063Z,101564.79
2023-01-21T02:57:16.063Z,101562.86
2023-01-21T02:58:15.070Z,101563.78
2023-01-21T02:59:11.068Z,101567.16
2023-01-21T03:00:17.424Z,101566.31
2023-01-21T03:01:19.072Z,101564.72
2023-01-21T03:02:19.125Z,101564.93
2023-01-21T03:03:19.069Z,101565.30
2023-01-21T03:04:19.078Z,101565.92
2023-01-21T03:05:21.064Z,101566.49
2023-01-21T03:06:19.074Z,101564.92
2023-01-21T03:07:19.067Z,101565.53
2023-01-21T03:08:18.064Z,101563.85
2023-01-21T03:09:18.063Z,101563.89
2023-01-21T03:10:20.064Z,101565.48
2023-01-21T03:11:18.076Z,101567.22
2023-01-21T03:12:21.064Z,101567.52
2023-01-21T03:13:19.063Z,101564.40
2023-01-21T03:14:25.061Z,101563.01
2023-01-21T03:15:23.065Z,101565.55
2023-01-21T03:16:16.066Z,101563.61
2023-01-21T03:17:19.072Z,101560.80
2023-01-21T03:18:23.131Z,101564.09
2023-01-21T03:19:13.063Z,101567.20
2023-01-21T03:20:18.296Z,101564.73
2023-01-21T03:21:15.063Z,101568.30
2023-01-21T03:22:12.084Z,101568.00
2023-01-21T03:23:17.068Z,101565.90
2023-01-21T03:24:12.060Z,101561.19
2023-01-21T03:25:11.066Z,101566.12
2023-01-21T03:26:13.066Z,101566.20
2023-01-21T03:27:13.064Z,101559.43
2023-01-21T03:28:17.063Z,101562.85
2023-01-21T03:29:18.067Z,101565.02
2023-01-21T03:30:13.063Z,101563.78
2023-01-21T03:31:14.131Z,101562.49
2023-01-21T03:32:13.074Z,101564.05
2023-01-21T03:33:11.066Z,101568.64
2023-01-21T03:34:11.073Z,101565.91
2023-01-21T03:35:12.066Z,101568.82
2023-01-21T03:36:16.065Z,101571.48
2023-01-21T03:37:18.072Z,101572.33
2023-01-21T03:38:21.080Z,101573.98
2023-01-21T03:39:18.107Z,101574.20
2023-01-21T03:40:19.430Z,101576.62
2023-01-21T03:41:18.081Z,101572.64
2023-01-21T03:42:11.067Z,101574.12
2023-01-21T03:43:11.066Z,101575.05
2023-01-21T03:44:11.082Z,101577.44
2023-01-21T03:45:11.063Z,101577.47
2023-01-21T03:46:19.066Z,101582.36
2023-01-21T03:47:21.086Z,101578.02
2023-01-21T03:48:20.063Z,101581.63
2023-01-21T03:49:17.063Z,101582.39
2023-01-21T03:50:16.527Z,101580.57
2023-01-21T03:51:19.132Z,101586.30
2023-01-21T03:52:12.075Z,101587.64
2023-01-21T03:53:11.064Z,101587.25
2023-01-21T03:54:11.068Z,101591.22
2023-01-21T03:55:11.075Z,101591.45
2023-01-21T03:56:11.065Z,101593.41
2023-01-21T03:57:11.066Z,101593.78
2023-01-21T03:58:11.080Z,101595.73
2023-01-21T03:59:11.087Z,101600.30
2023-01-21T04:00:11.065Z,101602.02
2023-01-21T04:01:11.101Z,101603.48
2023-01-21T04:02:11.090Z,101603.07
2023-01-21T04:03:11.060Z,101600.50
2023-01-21T04:04:11.070Z,101599.62
2023-01-21T04:05:11.072Z,101602.70
2023-01-21T04:06:15.079Z,101602.70
2023-01-21T04:07:11.063Z,101603.96
2023-01-21T04:08:11.080Z,101603.09
2023-01-21T04:09:11.066Z,101601.56
2023-01-21T04:10:11.063Z,101605.89
2023-01-21T04:11:11.081Z,101605.84
2023-01-21T04:12:11.066Z,101608.59
2023-01-21T04:13:11.067Z,101610.98
2023-01-21T04:14:11.061Z,101610.20
2023-01-21T04:15:11.061Z,101611.93
2023-01-21T04:16:11.153Z,101612.01
2023-01-21T04:17:11.062Z,101611.26
2023-01-21T04:18:11.068Z,101612.67
2023-01-21T04:19:11.081Z,101618.67
2023-01-21T04:20:11.062Z,101617.82
2023-01-21T04:21:11.076Z,101618.57
2023-01-21T04:22:11.060Z,101621.12
2023-01-21T04:23:11.064Z,101618.83
2023-01-21T04:24:11.067Z,101620.52
2023-01-21T04:25:11.059Z,101617.42
2023-01-21T04:26:11.068Z,101624.11
2023-01-21T04:27:11.063Z,101626.01
2023-01-21T04:28:11.070Z,101626.85
2023-01-21T04:29:11.062Z,101631.02
2023-01-21T04:30:11.069Z,101632.76
2023-01-21T04:31:11.104Z,101637.32
2023-01-21T04:32:11.063Z,101636.12
2023-01-21T04:33:11.085Z,101636.62
2023-01-21T04:34:11.062Z,101638.04
2023-01-21T04:35:11.058Z,101643.19
2023-01-21T04:36:11.085Z,101643.38
2023-01-21T04:37:11.064Z,101643.35
2023-01-21T04:38:11.069Z,101645.77
2023-01-21T04:39:11.069Z,101641.67
2023-01-21T04:40:11.063Z,101640.90
2023-01-21T04:41:11.058Z,101641.93
2023-01-21T04:42:11.069Z,101646.56
2023-01-21T04:43:11.063Z,101645.56
2023-01-21T04:44:11.058Z,101645.57
2023-01-21T04:45:11.063Z,101647.87
2023-01-21T04:46:11.133Z,101647.45
2023-01-21T04:47:11.058Z,101647.66
2023-01-21T04:48:11.086Z,101648.46
2023-01-21T04:49:11.063Z,101649.38
2023-01-21T04:50:11.058Z,101651.33
2023-01-21T04:51:11.081Z,101647.61
2023-01-21T04:52:11.064Z,101649.19
2023-01-21T04:53:11.065Z,101650.27
2023-01-21T04:54:11.071Z,101652.87
2023-01-21T04:55:11.062Z,101653.14
2023-01-21T04:56:11.060Z,101653.12
2023-01-21T04:57:11.070Z,101650.89
2023-01-21T04:58:11.079Z,101652.75
2023-01-21T04:59:11.058Z,101654.06
2023-01-21T05:00:11.070Z,101654.70
2023-01-21T05:01:11.131Z,101650.11
2023-01-21T05:02:11.101Z,101652.19
2023-01-21T05:03:11.063Z,101654.50
2023-01-21T05:04:11.069Z,101648.66
2023-01-21T05:05:11.061Z,101652.33
2023-01-21T05:06:11.062Z,101648.89
2023-01-21T05:07:11.065Z,101653.02
2023-01-21T05:08:11.064Z,101651.93
2023-01-21T05:09:11.064Z,101655.67
2023-01-21T05:10:14.180Z,101655.73
2023-01-21T05:11:11.071Z,101657.41
2023-01-21T05:12:11.068Z,101663.30
2023-01-21T05:13:11.070Z,101659.64
2023-01-21T05:14:11.065Z,101657.67
2023-01-21T05:15:11.069Z,101658.38
2023-01-21T05:16:12.069Z,101656.90
2023-01-21T05:17:11.065Z,101656.77
2023-01-21T05:18:11.075Z,101656.04
2023-01-21T05:19:11.063Z,101654.83
2023-01-21T05:20:11.083Z,101656.40
2023-01-21T05:21:11.061Z,101654.82
2023-01-21T05:22:11.062Z,101658.00
2023-01-21T05:23:11.074Z,101658.16
2023-01-21T05:24:11.059Z,101659.99
2023-01-21T05:25:11.072Z,101657.52
2023-01-21T05:26:11.079Z,101659.59
2023-01-21T05:27:11.071Z,101659.32
2023-01-21T05:28:11.072Z,101664.19
2023-01-21T05:29:11.071Z,101664.25
2023-01-21T05:30:11.063Z,101667.63
2023-01-21T05:31:11.216Z,101665.28
2023-01-21T05:32:11.098Z,101668.63
2023-01-21T05:33:11.069Z,101662.96
2023-01-21T05:34:11.066Z,101666.02
2023-01-21T05:35:11.070Z,101669.45
2023-01-21T05:36:11.085Z,101665.07
2023-01-21T05:37:11.057Z,101668.20
2023-01-21T05:38:11.066Z,101666.75
2023-01-21T05:39:11.073Z,101671.80
2023-01-21T05:40:11.072Z,101667.36
2023-01-21T05:41:11.063Z,101670.32
2023-01-21T05:42:11.083Z,101674.39
2023-01-21T05:43:11.063Z,101674.96
2023-01-21T05:44:11.063Z,101675.14
2023-01-21T05:45:11.066Z,101683.04
2023-01-21T05:46:11.123Z,101680.56
2023-01-21T05:47:11.064Z,101685.61
2023-01-21T05:48:11.063Z,101684.34
2023-01-21T05:49:11.063Z,101685.21
2023-01-21T05:50:11.085Z,101685.18
2023-01-21T05:51:11.105Z,101687.21
2023-01-21T05:52:11.063Z,101688.82
2023-01-21T05:53:11.083Z,101686.79
2023-01-21T05:54:11.102Z,101692.11
2023-01-21T05:55:11.069Z,101690.93
2023-01-21T05:56:11.065Z,101692.05
2023-01-21T05:57:11.068Z,101695.30
2023-01-21T05:58:11.101Z,101695.58
2023-01-21T05:59:11.062Z,101695.61
2023-01-21T06:00:11.064Z,101691.69
2023-01-21T06:01:11.062Z,101701.05
2023-01-21T06:02:11.155Z,101698.06
2023-01-21T06:03:11.065Z,101698.41
2023-01-21T06:04:11.078Z,101700.46
2023-01-21T06:05:11.065Z,101701.31
2023-01-21T06:06:11.080Z,101700.99
2023-01-21T06:07:11.084Z,101704.30
2023-01-21T06:08:11.084Z,101701.86
2023-01-21T06:09:11.070Z,101700.72
2023-01-21T06:10:11.075Z,101702.30
2023-01-21T06:11:11.070Z,101700.88
2023-01-21T06:12:11.073Z,101701.04
2023-01-21T06:13:12.062Z,101704.84
2023-01-21T06:14:11.067Z,101706.06
2023-01-21T06:15:11.079Z,101709.47
2023-01-21T06:16:11.102Z,101706.57
2023-01-21T06:17:11.065Z,101705.42
2023-01-21T06:18:11.071Z,101713.31
2023-01-21T06:19:11.065Z,101710.26
2023-01-21T06:20:11.070Z,101711.28
2023-01-21T06:21:11.071Z,101712.03
2023-01-21T06:22:15.062Z,101711.00
2023-01-21T06:23:11.072Z,101714.77
2023-01-21T06:24:11.067Z,101709.93
2023-01-21T06:25:11.068Z,101710.99
2023-01-21T06:26:11.064Z,101712.99
2023-01-21T06:27:11.064Z,101712.90
2023-01-21T06:28:11.075Z,101712.38
2023-01-21T06:29:11.066Z,101715.20
2023-01-21T06:30:12.062Z,101714.78
2023-01-21T06:31:11.190Z,101717.80
2023-01-21T06:32:11.183Z,101718.13
2023-01-21T06:33:11.065Z,101719.45
2023-01-21T06:34:11.070Z,101717.57
2023-01-21T06:35:11.068Z,101719.14
2023-01-21T06:36:11.062Z,101721.31
2023-01-21T06:37:11.077Z,101720.08
2023-01-21T06:38:11.066Z,101723.12
2023-01-21T06:39:11.114Z,101724.20
2023-01-21T06:40:11.074Z,101724.43
2023-01-21T06:41:11.069Z,101725.54
2023-01-21T06:42:11.063Z,101727.71
2023-01-21T06:43:11.083Z,101731.28
2023-01-21T06:44:11.072Z,101726.76
2023-01-21T06:45:11.059Z,101729.50
2023-01-21T06:46:11.113Z,101729.94
2023-01-21T06:47:11.063Z,101731.55
2023-01-21T06:48:11.078Z,101732.74
2023-01-21T06:49:11.063Z,101731.84
2023-01-21T06:50:11.066Z,101733.26
2023-01-21T06:51:11.167Z,101736.28
2023-01-21T06:52:11.063Z,101738.76
2023-01-21T06:53:11.066Z,101737.98
2023-01-21T06:54:11.064Z,101740.59
2023-01-21T06:55:11.066Z,101742.23
2023-01-21T06:56:11.076Z,101745.16
2023-01-21T06:57:11.062Z,101744.77
2023-01-21T06:58:11.076Z,101745.26
2023-01-21T06:59:11.075Z,101745.03
2023-01-21T07:00:11.066Z,101750.38
2023-01-21T07:01:11.057Z,101750.16
2023-01-21T07:02:11.089Z,101753.15
2023-01-21T07:03:11.062Z,101754.43
2023-01-21T07:04:11.059Z,101754.46
2023-01-21T07:05:11.067Z,101755.85
2023-01-21T07:06:11.075Z,101758.84
2023-01-21T07:07:11.062Z,101761.41
2023-01-21T07:08:11.066Z,101762.44
2023-01-21T07:09:11.064Z,101765.43
2023-01-21T07:10:11.071Z,101764.11
2023-01-21T07:11:11.068Z,101764.91
2023-01-21T07:12:11.066Z,101765.10
2023-01-21T07:13:11.061Z,101765.46
2023-01-21T07:14:11.069Z,101763.85
2023-01-21T07:15:11.076Z,101765.71
2023-01-21T07:16:11.079Z,101762.43
2023-01-21T07:17:11.061Z,101765.39
2023-01-21T07:18:11.078Z,101764.46
2023-01-21T07:19:11.066Z,101763.50
2023-01-21T07:20:11.096Z,101768.68
2023-01-21T07:21:11.070Z,101768.68
2023-01-21T07:22:11.086Z,101774.60
2023-01-21T07:23:11.065Z,101771.84
2023-01-21T07:24:11.067Z,101774.57
2023-01-21T07:25:12.066Z,101774.16
2023-01-21T07:26:11.057Z,101776.30
2023-01-21T07:27:11.062Z,101779.23
2023-01-21T07:28:11.062Z,101782.38
2023-01-21T07:29:13.057Z,101781.38
2023-01-21T07:30:14.226Z,101784.62
2023-01-21T07:31:11.231Z,101785.34
2023-01-21T07:32:11.061Z,101784.66
2023-01-21T07:33:11.061Z,101786.43
2023-01-21T07:34:11.062Z,101786.42
2023-01-21T07:35:11.060Z,101788.45
2023-01-21T07:36:11.061Z,101790.38
2023-01-21T07:37:11.069Z,101794.88
2023-01-21T07:38:11.081Z,101793.21
2023-01-21T07:39:11.061Z,101795.13
2023-01-21T07:40:11.070Z,101799.57
2023-01-21T07:41:11.061Z,101798.05
2023-01-21T07:42:11.066Z,101799.08
2023-01-21T07:43:11.073Z,101801.94
2023-01-21T07:44:11.065Z,101801.85
2023-01-21T07:45:11.077Z,101802.20
2023-01-21T07:46:11.206Z,101803.57
2023-01-21T07:47:11.064Z,101807.38
2023-01-21T07:48:11.078Z,101810.59
2023-01-21T07:49:11.070Z,101812.45
2023-01-21T07:50:12.062Z,101813.96
2023-01-21T07:51:11.099Z,101820.33
2023-01-21T07:52:11.062Z,101820.07
2023-01-21T07:53:11.064Z,101824.86
2023-01-21T07:54:11.056Z,101825.21
2023-01-21T07:55:12.586Z,101825.24
2023-01-21T07:56:11.062Z,101829.32
2023-01-21T07:57:11.060Z,101835.21
2023-01-21T07:58:11.064Z,101836.45
2023-01-21T07:59:11.097Z,101835.84
2023-01-21T08:00:11.068Z,101836.35
2023-01-21T08:01:11.068Z,101841.62
2023-01-21T08:02:11.268Z,101837.72
2023-01-21T08:03:11.068Z,101840.93
2023-01-21T08:04:11.070Z,101841.28
2023-01-21T08:05:11.087Z,101843.37
2023-01-21T08:06:11.073Z,101845.31
2023-01-21T08:07:13.370Z,101844.75
2023-01-21T08:08:11.065Z,101843.43
2023-01-21T08:09:11.070Z,101849.41
2023-01-21T08:10:11.104Z,101849.76
2023-01-21T08:11:11.063Z,101844.67
2023-01-21T08:12:11.063Z,101843.96
2023-01-21T08:13:11.070Z,101843.70
2023-01-21T08:14:11.066Z,101844.19
2023-01-21T08:15:11.064Z,101841.80
2023-01-21T08:16:11.127Z,101841.61
2023-01-21T08:17:11.062Z,101842.34
2023-01-21T08:18:11.063Z,101844.75
2023-01-21T08:19:13.729Z,101844.88
2023-01-21T08:20:11.068Z,101848.29
2023-01-21T08:21:11.072Z,101848.50
2023-01-21T08:22:11.069Z,101853.87
2023-01-21T08:23:11.066Z,101849.64
2023-01-21T08:24:11.077Z,101853.15
2023-01-21T08:25:11.074Z,101849.63
2023-01-21T08:26:11.065Z,101852.57
2023-01-21T08:27:11.069Z,101856.50
2023-01-21T08:28:11.064Z,101856.27
2023-01-21T08:29:11.065Z,101855.66
2023-01-21T08:30:11.073Z,101855.52
2023-01-21T08:31:12.195Z,101859.03
2023-01-21T08:32:11.059Z,101859.27
2023-01-21T08:33:11.073Z,101862.58
2023-01-21T08:34:11.065Z,101862.87
2023-01-21T08:35:11.070Z,101861.21
2023-01-21T08:36:11.067Z,101865.11
2023-01-21T08:37:11.083Z,101861.83
2023-01-21T08:38:11.061Z,101864.65
2023-01-21T08:39:12.062Z,101861.35
2023-01-21T08:40:11.067Z,101861.34
2023-01-21T08:41:11.066Z,101860.21
2023-01-21T08:42:11.062Z,101861.98
2023-01-21T08:43:12.063Z,101866.32
2023-01-21T08:44:11.070Z,101867.38
2023-01-21T08:45:11.062Z,101869.49
2023-01-21T08:46:11.099Z,101868.51
2023-01-21T08:47:11.112Z,101867.60
2023-01-21T08:48:11.071Z,101869.99
2023-01-21T08:49:11.072Z,101872.40
2023-01-21T08:50:11.062Z,101875.32
2023-01-21T08:51:11.092Z,101874.63
2023-01-21T08:52:11.066Z,101876.62
2023-01-21T08:53:11.063Z,101873.18
2023-01-21T08:54:11.061Z,101876.80
2023-01-21T08:55:11.069Z,101880.41
2023-01-21T08:56:11.089Z,101882.43
2023-01-21T08:57:11.074Z,101881.77
2023-01-21T08:58:11.071Z,101882.87
2023-01-21T08:59:11.107Z,101881.85
2023-01-21T09:00:11.060Z,101885.20
2023-01-21T09:01:11.216Z,101883.13
2023-01-21T09:02:12.109Z,101884.90
2023-01-21T09:03:11.064Z,101887.12
2023-01-21T09:04:11.075Z,101888.47
2023-01-21T09:05:11.089Z,101888.50
2023-01-21T09:06:11.082Z,101890.74
2023-01-21T09:07:11.065Z,101889.48
2023-01-21T09:08:11.072Z,101891.92
2023-01-21T09:09:12.065Z,101896.12
2023-01-21T09:10:11.061Z,101896.50
2023-01-21T09:11:11.071Z,101898.23
2023-01-21T09:12:11.065Z,101897.91
2023-01-21T09:13:11.083Z,101895.59
2023-01-21T09:14:11.080Z,101898.42
2023-01-21T09:15:11.079Z,101897.38
2023-01-21T09:16:16.091Z,101898.81
2023-01-21T09:17:11.066Z,101895.62
2023-01-21T09:18:11.083Z,101894.72
2023-01-21T09:19:11.065Z,101895.28
2023-01-21T09:20:11.063Z,101898.16
2023-01-21T09:21:11.072Z,101896.67
2023-01-21T09:22:11.061Z,101898.07
2023-01-21T09:23:15.067Z,101899.31
2023-01-21T09:24:11.065Z,101902.01
2023-01-21T09:25:14.121Z,101902.92
2023-01-21T09:26:19.066Z,101905.19
2023-01-21T09:27:11.080Z,101907.55
2023-01-21T09:28:11.074Z,101908.33
2023-01-21T09:29:11.074Z,101906.80
2023-01-21T09:30:11.070Z,101909.89
2023-01-21T09:31:12.069Z,101913.82
2023-01-21T09:32:11.064Z,101912.62
2023-01-21T09:33:11.064Z,101913.99
2023-01-21T09:34:11.066Z,101913.94
2023-01-21T09:35:11.071Z,101916.25
2023-01-21T09:36:14.083Z,101915.22
2023-01-21T09:37:11.067Z,101912.68
2023-01-21T09:38:11.074Z,101914.32
2023-01-21T09:39:11.065Z,101912.38
2023-01-21T09:40:16.077Z,101910.25
2023-01-21T09:41:19.071Z,101913.50
2023-01-21T09:42:20.063Z,101910.73
2023-01-21T09:43:15.069Z,101909.61
2023-01-21T09:44:19.064Z,101916.70
2023-01-21T09:45:14.363Z,101914.44
2023-01-21T09:46:21.068Z,101917.50
2023-01-21T09:47:21.075Z,101918.11
2023-01-21T09:48:13.061Z,101917.75
2023-01-21T09:49:19.067Z,101923.99
2023-01-21T09:50:18.072Z,101923.95
2023-01-21T09:51:21.143Z,101922.96
2023-01-21T09:52:19.066Z,101920.76
2023-01-21T09:53:21.066Z,101921.62
2023-01-21T09:54:23.063Z,101919.32
2023-01-21T09:55:17.516Z,101923.29
2023-01-21T09:56:21.105Z,101919.87
2023-01-21T09:57:21.068Z,101922.44
2023-01-21T09:58:19.063Z,101921.41
2023-01-21T09:59:22.059Z,101922.16
2023-01-21T10:00:21.074Z,101921.25
2023-01-21T10:01:21.171Z,101924.37
2023-01-21T10:02:21.078Z,101927.52
2023-01-21T10:03:21.061Z,101925.46
2023-01-21T10:04:19.098Z,101927.28
2023-01-21T10:05:21.058Z,101929.61
2023-01-21T10:06:20.061Z,101927.91
2023-01-21T10:07:21.064Z,101930.20
2023-01-21T10:08:19.070Z,101933.26
2023-01-21T10:09:18.061Z,101934.47
2023-01-21T10:10:19.063Z,101936.52
2023-01-21T10:11:19.073Z,101937.11
2023-01-21T10:12:19.074Z,101942.09
2023-01-21T10:13:19.062Z,101944.42
2023-01-21T10:14:23.064Z,101942.49
2023-01-21T10:15:21.056Z,101945.64
2023-01-21T10:16:19.099Z,101947.86
2023-01-21T10:17:19.063Z,101946.97
2023-01-21T10:18:15.063Z,101949.23
2023-01-21T10:19:16.066Z,101945.82
2023-01-21T10:20:21.060Z,101951.40
2023-01-21T10:21:19.061Z,101948.82
2023-01-21T10:22:17.063Z,101947.70
2023-01-21T10:23:19.060Z,101948.86
2023-01-21T10:24:20.055Z,101950.16
2023-01-21T10:25:19.240Z,101951.17
2023-01-21T10:26:11.068Z,101952.37
2023-01-21T10:27:14.058Z,101952.24
2023-01-21T10:28:20.086Z,101951.55
2023-01-21T10:29:16.081Z,101952.46
2023-01-21T10:30:19.065Z,101954.79
2023-01-21T10:31:19.268Z,101956.56
2023-01-21T10:32:16.082Z,101954.38
2023-01-21T10:33:19.069Z,101953.50
2023-01-21T10:34:18.062Z,101961.64
2023-01-21T10:35:17.251Z,101961.12
2023-01-21T10:36:19.060Z,101965.17
2023-01-21T10:37:19.071Z,101968.66
2023-01-21T10:38:17.063Z,101966.61
2023-01-21T10:39:19.060Z,101970.07
2023-01-21T10:40:19.063Z,101968.86
2023-01-21T10:41:21.070Z,101969.55
2023-01-21T10:42:21.072Z,101967.95
2023-01-21T10:43:19.061Z,101968.24
2023-01-21T10:44:19.062Z,101968.00
2023-01-21T10:45:20.142Z,101970.95
2023-01-21T10:46:21.163Z,101969.84
2023-01-21T10:47:19.075Z,101969.92
2023-01-21T10:48:22.063Z,101972.83
2023-01-21T10:49:21.071Z,101967.36
2023-01-21T10:50:21.070Z,101969.48
2023-01-21T10:51:21.104Z,101970.22
2023-01-21T10:52:19.061Z,101969.80
2023-01-21T10:53:19.075Z,101972.39
2023-01-21T10:54:21.526Z,101970.16
2023-01-21T10:55:19.428Z,101969.48
2023-01-21T10:56:21.067Z,101971.58
2023-01-21T10:57:19.062Z,101969.88
2023-01-21T10:58:21.082Z,101972.26
2023-01-21T10:59:18.066Z,101969.11
2023-01-21T11:00:19.063Z,101972.55
2023-01-21T11:01:19.100Z,101970.22
2023-01-21T11:02:19.107Z,101972.12
2023-01-21T11:03:16.064Z,101964.61
2023-01-21T11:04:16.062Z,101969.20
2023-01-21T11:05:14.264Z,101969.74
2023-01-21T11:06:12.087Z,101967.82
2023-01-21T11:07:12.073Z,101969.56
2023-01-21T11:08:18.063Z,101968.14
2023-01-21T11:09:14.124Z,101965.71
2023-01-21T11:10:15.073Z,101964.66
2023-01-21T11:11:11.071Z,101963.83
2023-01-21T11:12:11.066Z,101963.55
2023-01-21T11:13:13.069Z,101959.82
2023-01-21T11:14:11.061Z,101954.75
2023-01-21T11:15:15.284Z,101960.29
2023-01-21T11:16:11.127Z,101955.98
2023-01-21T11:17:11.062Z,101957.58
2023-01-21T11:18:21.064Z,101957.82
2023-01-21T11:19:13.064Z,101960.57
2023-01-21T11:20:21.636Z,101960.34
2023-01-21T11:21:17.058Z,101961.91
2023-01-21T11:22:19.064Z,101956.15
2023-01-21T11:23:19.065Z,101959.40
2023-01-21T11:24:19.063Z,101957.12